Time;durP1;ratioP1;P1;durP2;ratioP2;P2;SDS_P1;SDS_P2;PMS_P1;PMS_P2;Temp;Humidity;BMP_temperature;BMP_pressure;BME280_temperature;BME280_humidity;BME280_pressure;Samples;Min_cycle;Max_cycle;Signal;HPM_P1;HPM_P2
2022/02/25 00:02:16;;;;;;;33.47;13.57;;;;;;;;;;5074874;28;20476;-48
2022/02/25 00:04:42;;;;;;;29.55;12.20;;;;;;;;;;5074839;28;20479;-50
2022/02/25 00:07:08;;;;;;;32.72;15.82;;;;;;;;;;5074815;28;20024;-49
2022/02/25 00:09:34;;;;;;;40.95;17.13;;;;;;;;;;5074781;28;20069;-49
2022/02/25 00:12:00;;;;;;;43.22;20.13;;;;;;;;;;5074518;28;20016;-46
2022/02/25 00:14:26;;;;;;;25.88;11.70;;;;;;;;;;5074764;28;20029;-47
2022/02/25 00:16:52;;;;;;;30.67;14.10;;;;;;;;;;5074727;28;20067;-48
2022/02/25 00:19:18;;;;;;;29.85;12.60;;;;;;;;;;5074737;28;20103;-49
2022/02/25 00:21:45;;;;;;;33.15;15.18;;;;;;;;;;5074540;28;20044;-50
2022/02/25 00:24:11;;;;;;;25.95;10.80;;;;;;;;;;5073541;28;20028;-48
2022/02/25 00:26:38;;;;;;;22.33;11.15;;;;;;;;;;5075240;28;20124;-48
2022/02/25 00:29:04;;;;;;;37.42;15.80;;;;;;;;;;5074439;28;20112;-49
2022/02/25 00:31:31;;;;;;;25.67;11.80;;;;;;;;;;5074303;28;20035;-48
2022/02/25 00:33:57;;;;;;;38.00;17.52;;;;;;;;;;5074385;28;20024;-49
2022/02/25 00:36:23;;;;;;;22.38;10.55;;;;;;;;;;5074273;28;20024;-48
2022/02/25 00:38:49;;;;;;;26.92;11.77;;;;;;;;;;5074141;28;20102;-48
2022/02/25 00:41:15;;;;;;;23.40;11.45;;;;;;;;;;5074020;28;20037;-48
2022/02/25 00:43:41;;;;;;;21.30;12.07;;;;;;;;;;5074303;28;20021;-49
2022/02/25 00:46:07;;;;;;;30.92;13.70;;;;;;;;;;5074172;28;20028;-48
2022/02/25 00:48:33;;;;;;;29.88;13.07;;;;;;;;;;5073993;28;20384;-49
2022/02/25 00:51:00;;;;;;;28.63;13.10;;;;;;;;;;5074046;28;20373;-48
2022/02/25 00:53:26;;;;;;;26.90;9.98;;;;;;;;;;5074013;28;20021;-47
2022/02/25 00:55:54;;;;;;;31.80;16.30;;;;;;;;;;5073798;28;20557;-50
2022/02/25 00:58:21;;;;;;;24.83;12.85;;;;;;;;;;5074052;28;20468;-48
2022/02/25 01:00:47;;;;;;;19.40;10.52;;;;;;;;;;5073543;28;20480;-48
2022/02/25 01:03:13;;;;;;;32.47;15.55;;;;;;;;;;5073698;28;20064;-48
2022/02/25 01:05:39;;;;;;;33.95;15.73;;;;;;;;;;5073868;28;20060;-47
2022/02/25 01:08:06;;;;;;;40.95;17.83;;;;;;;;;;5073749;28;20032;-51
2022/02/25 01:10:33;;;;;;;24.33;11.57;;;;;;;;;;5073517;28;20024;-46
2022/02/25 01:12:59;;;;;;;25.42;10.25;;;;;;;;;;5073504;28;20491;-49
2022/02/25 01:15:28;;;;;;;22.48;11.43;;;;;;;;;;5073617;28;20074;-46
2022/02/25 01:17:54;;;;;;;40.58;20.23;;;;;;;;;;5073610;28;20020;-50
2022/02/25 01:20:20;;;;;;;23.52;12.23;;;;;;;;;;5073386;28;20482;-46
2022/02/25 01:22:46;;;;;;;27.85;11.32;;;;;;;;;;5073525;28;20032;-47
2022/02/25 01:25:13;;;;;;;20.17;10.52;;;;;;;;;;5073359;28;20028;-48
2022/02/25 01:27:39;;;;;;;21.55;10.50;;;;;;;;;;5073422;28;20059;-48
2022/02/25 01:30:06;;;;;;;23.85;11.27;;;;;;;;;;5073420;28;20029;-49
2022/02/25 01:32:32;;;;;;;22.63;10.30;;;;;;;;;;5073334;28;20037;-49
2022/02/25 01:34:58;;;;;;;27.35;12.10;;;;;;;;;;5073062;28;20031;-46
2022/02/25 01:37:25;;;;;;;29.05;11.85;;;;;;;;;;5073336;28;20070;-47
2022/02/25 01:39:51;;;;;;;30.85;13.30;;;;;;;;;;5073322;28;20025;-48
2022/02/25 01:42:17;;;;;;;26.75;12.07;;;;;;;;;;5075137;28;20036;-49
2022/02/25 01:44:44;;;;;;;27.73;11.48;;;;;;;;;;5079630;28;20488;-49
2022/02/25 01:47:11;;;;;;;31.15;10.95;;;;;;;;;;5073160;28;20035;-48
2022/02/25 01:49:37;;;;;;;23.63;11.80;;;;;;;;;;5073057;28;20028;-50
2022/02/25 01:52:08;;;;;;;24.25;11.43;;;;;;;;;;5073043;28;20028;-48
2022/02/25 01:54:34;;;;;;;20.23;10.83;;;;;;;;;;5073092;28;20058;-50
2022/02/25 01:57:00;;;;;;;24.63;12.43;;;;;;;;;;5073255;28;20025;-48
2022/02/25 01:59:28;;;;;;;26.77;11.63;;;;;;;;;;5073139;28;20025;-49
2022/02/25 02:01:54;;;;;;;28.08;12.38;;;;;;;;;;5072662;28;20103;-47
2022/02/25 02:04:21;;;;;;;26.92;12.95;;;;;;;;;;5073084;28;20027;-50
2022/02/25 02:06:50;;;;;;;21.35;11.40;;;;;;;;;;5073037;28;20020;-48
2022/02/25 02:09:16;;;;;;;27.55;12.75;;;;;;;;;;5072986;28;20031;-49
2022/02/25 02:11:44;;;;;;;27.83;13.52;;;;;;;;;;5073104;28;20024;-49
2022/02/25 02:14:16;;;;;;;23.83;11.57;;;;;;;;;;5072928;28;20036;-49
2022/02/25 02:16:45;;;;;;;21.52;11.80;;;;;;;;;;5072869;28;20074;-48
2022/02/25 02:19:11;;;;;;;35.28;16.23;;;;;;;;;;5072776;28;20173;-48
2022/02/25 02:21:44;;;;;;;32.72;14.55;;;;;;;;;;5072982;28;20036;-49
2022/02/25 02:24:11;;;;;;;37.25;15.93;;;;;;;;;;5072754;28;20413;-48
2022/02/25 02:26:37;;;;;;;44.50;17.30;;;;;;;;;;5072697;28;20033;-48
2022/02/25 02:29:04;;;;;;;36.20;16.15;;;;;;;;;;5072767;28;20021;-48
2022/02/25 02:31:33;;;;;;;36.90;15.55;;;;;;;;;;5072729;28;20450;-48
2022/02/25 02:33:59;;;;;;;34.60;16.15;;;;;;;;;;5072699;28;20103;-50
2022/02/25 02:36:28;;;;;;;28.60;14.50;;;;;;;;;;5072627;28;20028;-48
2022/02/25 02:38:57;;;;;;;25.73;12.20;;;;;;;;;;5054758;28;20372;-49
2022/02/25 02:41:23;;;;;;;27.55;13.63;;;;;;;;;;5072488;28;20047;-49
2022/02/25 02:43:50;;;;;;;27.63;13.82;;;;;;;;;;5072956;28;20090;-50
2022/02/25 02:46:16;;;;;;;22.75;12.63;;;;;;;;;;5072722;28;20114;-49
2022/02/25 02:48:42;;;;;;;24.10;13.32;;;;;;;;;;5075994;28;20032;-49
2022/02/25 02:51:09;;;;;;;22.48;12.15;;;;;;;;;;5076636;28;20020;-49
2022/02/25 02:53:35;;;;;;;25.25;12.13;;;;;;;;;;5076189;28;20071;-49
2022/02/25 02:56:02;;;;;;;24.13;11.80;;;;;;;;;;5076444;28;20153;-48
2022/02/25 02:58:30;;;;;;;25.35;12.43;;;;;;;;;;5076411;28;20044;-48
2022/02/25 03:00:56;;;;;;;23.45;11.88;;;;;;;;;;5075926;28;20189;-48
2022/02/25 03:03:23;;;;;;;28.13;12.77;;;;;;;;;;5075968;28;20112;-48
2022/02/25 03:05:49;;;;;;;22.63;12.10;;;;;;;;;;5076051;28;20086;-49
2022/02/25 03:08:16;;;;;;;24.48;11.73;;;;;;;;;;5075978;28;20021;-49
2022/02/25 03:10:43;;;;;;;26.70;12.68;;;;;;;;;;5057595;28;20078;-49
2022/02/25 03:13:09;;;;;;;25.90;12.50;;;;;;;;;;5076192;28;20021;-48
2022/02/25 03:15:38;;;;;;;25.55;13.40;;;;;;;;;;5075900;28;20427;-48
2022/02/25 03:18:06;;;;;;;25.98;13.68;;;;;;;;;;5075734;28;20027;-49
2022/02/25 03:20:33;;;;;;;28.92;14.05;;;;;;;;;;5075780;28;20137;-48
2022/02/25 03:23:00;;;;;;;25.35;13.35;;;;;;;;;;5075844;28;20052;-49
2022/02/25 03:25:29;;;;;;;23.33;12.45;;;;;;;;;;5075977;28;20027;-49
2022/02/25 03:27:55;;;;;;;26.00;12.77;;;;;;;;;;5075598;28;20025;-48
2022/02/25 03:30:24;;;;;;;25.17;13.82;;;;;;;;;;5075471;28;20488;-50
2022/02/25 03:32:54;;;;;;;31.85;14.23;;;;;;;;;;5057448;28;20115;-50
2022/02/25 03:35:20;;;;;;;20.48;12.50;;;;;;;;;;5075692;28;20029;-48
2022/02/25 03:37:46;;;;;;;30.75;15.52;;;;;;;;;;5075468;28;20025;-50
2022/02/25 03:40:13;;;;;;;30.35;14.80;;;;;;;;;;5075757;28;20029;-50
2022/02/25 03:42:39;;;;;;;32.15;14.07;;;;;;;;;;5075573;28;20056;-50
2022/02/25 03:45:06;;;;;;;28.05;13.73;;;;;;;;;;5075335;28;20024;-50
2022/02/25 03:47:33;;;;;;;29.25;14.02;;;;;;;;;;5075457;28;20052;-49
2022/02/25 03:49:59;;;;;;;36.28;16.33;;;;;;;;;;5075143;28;20070;-48
2022/02/25 03:52:26;;;;;;;32.15;15.98;;;;;;;;;;5075476;28;20384;-50
2022/02/25 03:54:52;;;;;;;30.45;15.68;;;;;;;;;;5075376;28;20029;-49
2022/02/25 03:57:18;;;;;;;27.75;13.75;;;;;;;;;;5075289;28;20027;-48
2022/02/25 03:59:44;;;;;;;29.00;14.57;;;;;;;;;;5074630;28;20388;-48
2022/02/25 04:02:10;;;;;;;27.90;14.30;;;;;;;;;;5075247;28;20147;-49
2022/02/25 04:04:36;;;;;;;30.48;13.68;;;;;;;;;;5074959;28;20020;-49
2022/02/25 04:07:02;;;;;;;32.20;14.38;;;;;;;;;;5074907;28;20349;-50
2022/02/25 04:09:28;;;;;;;29.58;14.63;;;;;;;;;;5075144;28;20099;-48
2022/02/25 04:11:55;;;;;;;26.40;14.40;;;;;;;;;;5074854;28;20027;-52
2022/02/25 04:14:21;;;;;;;28.63;14.77;;;;;;;;;;5074796;28;20024;-48
2022/02/25 04:16:48;;;;;;;32.05;15.70;;;;;;;;;;5074880;28;20090;-48
2022/02/25 04:19:15;;;;;;;32.45;15.48;;;;;;;;;;5074744;28;20108;-49
2022/02/25 04:21:41;;;;;;;29.10;15.30;;;;;;;;;;5074432;28;20040;-49
2022/02/25 04:24:08;;;;;;;32.45;15.70;;;;;;;;;;5074748;28;20465;-49
2022/02/25 04:26:34;;;;;;;34.60;15.32;;;;;;;;;;5074671;28;20095;-50
2022/02/25 04:29:00;;;;;;;30.92;16.08;;;;;;;;;;5074600;28;20029;-50
2022/02/25 04:31:26;;;;;;;33.80;15.88;;;;;;;;;;5074483;28;20120;-49
2022/02/25 04:33:54;;;;;;;31.35;15.40;;;;;;;;;;5074354;28;20078;-48
2022/02/25 04:36:20;;;;;;;30.13;16.45;;;;;;;;;;5074225;28;20054;-50
2022/02/25 04:38:49;;;;;;;34.30;16.88;;;;;;;;;;5074263;28;20395;-49
2022/02/25 04:41:15;;;;;;;31.42;15.55;;;;;;;;;;5074075;28;20036;-49
2022/02/25 04:43:41;;;;;;;34.33;15.25;;;;;;;;;;5074197;28;20071;-48
2022/02/25 04:46:14;;;;;;;34.42;15.98;;;;;;;;;;5074210;28;20024;-48
2022/02/25 04:48:40;;;;;;;37.10;16.83;;;;;;;;;;5074070;28;20137;-47
2022/02/25 04:51:06;;;;;;;30.00;15.80;;;;;;;;;;5074003;28;20035;-47
2022/02/25 04:53:32;;;;;;;30.80;15.25;;;;;;;;;;5073991;28;20483;-49
2022/02/25 04:55:59;;;;;;;33.10;16.15;;;;;;;;;;5074119;28;20024;-48
2022/02/25 04:58:25;;;;;;;37.40;16.48;;;;;;;;;;5074141;28;20021;-47
2022/02/25 05:00:51;;;;;;;34.30;16.45;;;;;;;;;;5073734;28;20128;-48
2022/02/25 05:03:17;;;;;;;34.03;16.58;;;;;;;;;;5074095;28;20380;-49
2022/02/25 05:05:44;;;;;;;36.88;16.75;;;;;;;;;;5073622;28;20020;-49
2022/02/25 05:08:10;;;;;;;38.28;19.45;;;;;;;;;;5073826;28;20028;-50
2022/02/25 05:10:36;;;;;;;49.35;22.45;;;;;;;;;;5073213;28;20029;-50
2022/02/25 05:13:02;;;;;;;49.72;23.58;;;;;;;;;;5073903;28;20025;-48
2022/02/25 05:20:59;;;;;;;57.35;27.08;;;;;;;;;;5073319;28;20039;-48
2022/02/25 05:23:25;;;;;;;75.00;29.50;;;;;;;;;;5073765;28;20510;-50
2022/02/25 05:25:52;;;;;;;81.28;30.52;;;;;;;;;;5073558;28;20043;-48
2022/02/25 05:28:18;;;;;;;64.38;28.52;;;;;;;;;;5073358;28;20028;-49
2022/02/25 05:30:44;;;;;;;53.45;24.40;;;;;;;;;;5073265;28;20400;-50
2022/02/25 05:33:10;;;;;;;42.53;21.15;;;;;;;;;;5073249;28;20020;-50
2022/02/25 05:35:36;;;;;;;43.92;19.40;;;;;;;;;;5073320;28;20491;-49
2022/02/25 05:38:03;;;;;;;53.28;29.20;;;;;;;;;;5073466;28;20024;-49
2022/02/25 05:40:29;;;;;;;38.22;19.48;;;;;;;;;;5073355;28;20028;-50
2022/02/25 05:42:55;;;;;;;39.55;18.95;;;;;;;;;;5073104;28;20040;-57
2022/02/25 05:45:21;;;;;;;41.25;20.42;;;;;;;;;;5073168;28;20065;-56
2022/02/25 05:47:48;;;;;;;41.97;22.65;;;;;;;;;;5073043;28;20048;-57
2022/02/25 05:50:15;;;;;;;43.70;22.55;;;;;;;;;;5073180;28;20016;-58
2022/02/25 05:52:42;;;;;;;41.65;21.45;;;;;;;;;;5073228;28;20032;-57
2022/02/25 05:55:13;;;;;;;53.65;24.67;;;;;;;;;;5072596;28;20052;-57
2022/02/25 05:57:39;;;;;;;63.80;26.85;;;;;;;;;;5073149;28;20043;-57
2022/02/25 06:00:07;;;;;;;76.47;33.80;;;;;;;;;;5072736;28;20045;-57
2022/02/25 06:02:33;;;;;;;78.20;36.38;;;;;;;;;;5073106;28;20037;-58
2022/02/25 06:04:59;;;;;;;50.45;25.13;;;;;;;;;;5072795;28;20024;-58
2022/02/25 06:07:26;;;;;;;72.13;35.22;;;;;;;;;;5073213;28;20127;-57
2022/02/25 06:09:52;;;;;;;62.83;28.83;;;;;;;;;;5072978;28;20024;-55
2022/02/25 06:12:18;;;;;;;54.03;27.17;;;;;;;;;;5072913;28;20077;-55
2022/02/25 06:14:44;;;;;;;44.15;23.23;;;;;;;;;;5072838;28;20380;-54
2022/02/25 06:17:10;;;;;;;41.72;21.95;;;;;;;;;;5072870;28;20035;-56
2022/02/25 06:19:36;;;;;;;53.72;23.45;;;;;;;;;;5072966;28;20225;-56
2022/02/25 06:22:02;;;;;;;38.53;19.58;;;;;;;;;;5073517;28;20032;-55
2022/02/25 06:24:31;;;;;;;40.13;23.08;;;;;;;;;;5076854;28;20487;-56
2022/02/25 06:26:57;;;;;;;41.10;20.50;;;;;;;;;;5076908;28;20518;-55
2022/02/25 06:29:23;;;;;;;35.00;20.70;;;;;;;;;;5076558;28;20017;-47
2022/02/25 06:31:51;;;;;;;43.65;21.08;;;;;;;;;;5076615;28;20447;-45
2022/02/25 06:34:20;;;;;;;36.55;19.30;;;;;;;;;;5076550;28;20489;-51
2022/02/25 06:36:46;;;;;;;41.78;20.88;;;;;;;;;;5076652;28;20050;-45
2022/02/25 06:39:12;;;;;;;43.85;23.52;;;;;;;;;;5076692;28;20496;-55
2022/02/25 06:41:38;;;;;;;35.17;19.25;;;;;;;;;;5076580;28;20108;-55
2022/02/25 06:44:04;;;;;;;43.40;19.30;;;;;;;;;;5076553;28;20103;-53
2022/02/25 06:46:30;;;;;;;60.30;29.10;;;;;;;;;;5076299;28;20021;-55
2022/02/25 06:48:57;;;;;;;54.05;29.60;;;;;;;;;;5076520;28;20032;-53
2022/02/25 06:51:25;;;;;;;44.78;25.55;;;;;;;;;;5076208;28;20024;-53
2022/02/25 06:53:52;;;;;;;43.28;22.55;;;;;;;;;;5076386;28;20040;-54
2022/02/25 06:56:19;;;;;;;44.90;23.85;;;;;;;;;;5076294;28;20084;-54
2022/02/25 06:58:45;;;;;;;59.33;28.45;;;;;;;;;;5076177;28;20039;-52
2022/02/25 07:01:13;;;;;;;65.50;33.67;;;;;;;;;;5075702;28;20048;-54
2022/02/25 07:03:39;;;;;;;45.67;24.15;;;;;;;;;;5076004;28;20032;-55
2022/02/25 07:06:05;;;;;;;60.63;34.17;;;;;;;;;;5075996;28;20453;-54
2022/02/25 07:08:31;;;;;;;66.95;33.63;;;;;;;;;;5076173;28;20029;-51
2022/02/25 07:11:00;;;;;;;65.47;32.92;;;;;;;;;;5057915;28;20063;-50
2022/02/25 07:13:26;;;;;;;66.90;34.08;;;;;;;;;;5075967;28;20037;-45
2022/02/25 07:15:53;;;;;;;62.35;31.85;;;;;;;;;;5075859;28;20392;-46
2022/02/25 07:18:19;;;;;;;55.80;30.80;;;;;;;;;;5075741;28;20025;-46
2022/02/25 07:20:47;;;;;;;54.75;28.02;;;;;;;;;;5075631;28;20036;-48
2022/02/25 07:23:13;;;;;;;42.40;23.23;;;;;;;;;;5075626;28;20078;-52
2022/02/25 07:25:40;;;;;;;39.08;21.98;;;;;;;;;;5075747;28;20048;-52
2022/02/25 07:28:06;;;;;;;36.10;17.83;;;;;;;;;;5075665;28;20031;-50
2022/02/25 07:30:33;;;;;;;30.75;17.33;;;;;;;;;;5075485;28;20029;-51
2022/02/25 07:32:59;;;;;;;23.88;14.25;;;;;;;;;;5075134;28;20107;-52
2022/02/25 07:35:25;;;;;;;31.05;16.23;;;;;;;;;;5075477;28;20099;-52
2022/02/25 07:37:52;;;;;;;36.45;16.80;;;;;;;;;;5075500;28;20017;-54
2022/02/25 07:40:18;;;;;;;27.52;15.23;;;;;;;;;;5076034;28;20345;-49
2022/02/25 07:42:45;;;;;;;35.38;18.27;;;;;;;;;;5075409;28;20037;-45
2022/02/25 07:45:12;;;;;;;43.35;18.88;;;;;;;;;;5075339;28;20103;-45
2022/02/25 07:47:40;;;;;;;36.25;17.17;;;;;;;;;;5075721;28;20055;-51
2022/02/25 07:50:07;;;;;;;29.50;15.18;;;;;;;;;;5075419;28;20017;-48
2022/02/25 07:52:36;;;;;;;27.15;15.50;;;;;;;;;;5075671;28;20038;-46
2022/02/25 07:55:02;;;;;;;33.65;18.13;;;;;;;;;;5075280;28;20035;-45
2022/02/25 07:57:28;;;;;;;33.03;18.90;;;;;;;;;;5075451;28;20112;-52
2022/02/25 07:59:54;;;;;;;38.55;19.67;;;;;;;;;;5074931;28;20021;-48
2022/02/25 08:02:20;;;;;;;31.55;17.70;;;;;;;;;;5074992;28;20544;-47
2022/02/25 08:04:49;;;;;;;28.83;14.95;;;;;;;;;;5075022;28;20029;-53
2022/02/25 08:07:15;;;;;;;25.65;14.13;;;;;;;;;;5074934;28;20506;-52
2022/02/25 08:09:41;;;;;;;24.15;12.70;;;;;;;;;;5075012;28;20024;-51
2022/02/25 08:12:07;;;;;;;27.60;12.68;;;;;;;;;;5075076;28;20042;-52
2022/02/25 08:14:37;;;;;;;27.58;14.38;;;;;;;;;;5074905;28;20032;-52
2022/02/25 08:17:04;;;;;;;38.67;16.02;;;;;;;;;;5074681;28;20023;-52
2022/02/25 08:19:30;;;;;;;33.78;17.00;;;;;;;;;;5074903;28;20403;-51
2022/02/25 08:21:56;;;;;;;35.70;18.27;;;;;;;;;;5074535;28;20028;-51
2022/02/25 08:24:23;;;;;;;42.25;21.88;;;;;;;;;;5074777;28;20051;-52
2022/02/25 08:26:50;;;;;;;37.55;22.20;;;;;;;;;;5074761;28;20067;-49
2022/02/25 08:29:16;;;;;;;48.45;22.00;;;;;;;;;;5075083;28;20025;-53
2022/02/25 08:31:44;;;;;;;35.45;17.63;;;;;;;;;;5074214;28;20029;-52
2022/02/25 08:34:10;;;;;;;35.85;16.13;;;;;;;;;;5074516;28;20465;-50
2022/02/25 08:36:36;;;;;;;26.20;14.75;;;;;;;;;;5074447;28;20044;-52
2022/02/25 08:39:03;;;;;;;25.10;14.13;;;;;;;;;;5074438;28;20074;-53
2022/02/25 08:41:29;;;;;;;27.67;15.57;;;;;;;;;;5074313;28;20021;-51
2022/02/25 08:43:55;;;;;;;35.40;17.83;;;;;;;;;;5074205;28;20035;-52
2022/02/25 08:46:22;;;;;;;32.00;18.05;;;;;;;;;;5073571;28;20031;-52
2022/02/25 08:48:49;;;;;;;25.02;13.73;;;;;;;;;;5074377;28;20016;-54
2022/02/25 08:51:16;;;;;;;27.60;13.50;;;;;;;;;;5074257;28;20081;-53
2022/02/25 08:53:42;;;;;;;26.98;13.25;;;;;;;;;;5074161;28;20025;-49
2022/02/25 08:56:09;;;;;;;26.05;14.57;;;;;;;;;;5073991;28;20029;-51
2022/02/25 08:58:38;;;;;;;28.98;15.65;;;;;;;;;;5074019;28;20029;-51
2022/02/25 09:01:06;;;;;;;29.85;15.63;;;;;;;;;;5073793;28;20049;-53
2022/02/25 09:03:32;;;;;;;34.10;18.27;;;;;;;;;;5073941;28;20054;-53
2022/02/25 09:05:58;;;;;;;31.65;16.75;;;;;;;;;;5073825;28;20043;-53
2022/02/25 09:08:24;;;;;;;26.60;14.80;;;;;;;;;;5074060;28;20064;-54
2022/02/25 09:10:52;;;;;;;27.75;15.13;;;;;;;;;;5073937;28;20074;-46
2022/02/25 09:13:19;;;;;;;23.48;15.20;;;;;;;;;;5073766;28;20056;-49
2022/02/25 09:15:45;;;;;;;25.25;13.52;;;;;;;;;;5073743;28;20078;-46
2022/02/25 09:18:11;;;;;;;30.67;13.60;;;;;;;;;;5073560;28;20116;-46
2022/02/25 09:20:37;;;;;;;25.48;12.73;;;;;;;;;;5073505;28;20056;-46
2022/02/25 09:23:04;;;;;;;25.13;12.38;;;;;;;;;;5073591;28;20123;-45
2022/02/25 09:25:30;;;;;;;25.95;14.23;;;;;;;;;;5055795;28;20063;-46
2022/02/25 09:27:57;;;;;;;27.77;14.57;;;;;;;;;;5073576;28;20035;-49
2022/02/25 09:30:24;;;;;;;22.17;12.00;;;;;;;;;;5073287;28;20036;-45
2022/02/25 09:32:50;;;;;;;28.23;13.98;;;;;;;;;;5073454;28;20024;-46
2022/02/25 09:35:16;;;;;;;29.33;14.98;;;;;;;;;;5073498;28;20477;-47
2022/02/25 09:37:42;;;;;;;23.13;12.85;;;;;;;;;;5073392;28;20472;-45
2022/02/25 09:40:10;;;;;;;20.17;12.63;;;;;;;;;;5073254;28;20089;-54
2022/02/25 09:42:37;;;;;;;22.85;13.98;;;;;;;;;;5073013;28;20365;-51
2022/02/25 09:45:04;;;;;;;30.02;15.82;;;;;;;;;;5073521;28;20048;-45
2022/02/25 09:47:35;;;;;;;35.28;21.33;;;;;;;;;;5073481;28;20028;-45
2022/02/25 09:50:01;;;;;;;35.70;19.85;;;;;;;;;;5073480;28;20435;-46
2022/02/25 09:52:28;;;;;;;50.55;29.02;;;;;;;;;;5073333;28;20047;-43
2022/02/25 09:54:54;;;;;;;64.55;37.85;;;;;;;;;;5073252;28;20445;-45
2022/02/25 09:57:20;;;;;;;47.25;22.77;;;;;;;;;;5073024;28;20029;-47
2022/02/25 09:59:48;;;;;;;32.38;18.77;;;;;;;;;;5072932;28;20434;-49
2022/02/25 10:02:14;;;;;;;28.48;17.02;;;;;;;;;;5073309;28;20479;-45
2022/02/25 10:04:41;;;;;;;57.13;34.05;;;;;;;;;;5073084;28;20067;-44
2022/02/25 10:07:23;;;;;;;58.00;36.72;;;;;;;;;;5072935;28;20029;-45
2022/02/25 10:09:51;;;;;;;46.75;28.58;;;;;;;;;;5054701;28;20032;-45
2022/02/25 10:12:17;;;;;;;60.20;37.33;;;;;;;;;;5073123;28;20402;-45
2022/02/25 10:14:44;;;;;;;30.88;16.70;;;;;;;;;;5072904;28;20107;-45
2022/02/25 10:17:15;;;;;;;29.95;19.38;;;;;;;;;;5073056;28;20092;-45
2022/02/25 10:19:45;;;;;;;30.17;18.58;;;;;;;;;;5073129;28;20111;-45
2022/02/25 10:22:19;;;;;;;25.05;14.95;;;;;;;;;;5070524;28;20029;-47
2022/02/25 10:24:46;;;;;;;42.17;25.67;;;;;;;;;;5072792;28;20020;-48
2022/02/25 10:27:20;;;;;;;48.33;30.45;;;;;;;;;;5072776;28;20024;-44
2022/02/25 10:29:51;;;;;;;52.67;27.30;;;;;;;;;;5072868;28;20070;-51
2022/02/25 10:32:30;;;;;;;37.78;22.25;;;;;;;;;;5072684;28;20027;-48
2022/02/25 10:34:56;;;;;;;36.50;21.73;;;;;;;;;;5073145;28;20020;-47
2022/02/25 10:37:22;;;;;;;31.55;20.33;;;;;;;;;;5072585;28;20020;-49
2022/02/25 10:39:49;;;;;;;37.08;22.77;;;;;;;;;;5072452;28;20656;-52
2022/02/25 10:42:16;;;;;;;47.38;25.90;;;;;;;;;;5054251;28;20055;-52
2022/02/25 10:44:45;;;;;;;45.65;28.05;;;;;;;;;;5072636;28;20021;-51
2022/02/25 10:47:16;;;;;;;45.83;14.98;;;;;;;;;;5072456;28;20028;-50
2022/02/25 10:49:43;;;;;;;40.95;21.15;;;;;;;;;;5072605;28;20116;-52
2022/02/25 10:52:27;;;;;;;30.98;19.77;;;;;;;;;;5072372;28;20021;-51
2022/02/25 10:54:54;;;;;;;31.48;14.30;;;;;;;;;;5072368;28;20032;-45
2022/02/25 10:57:21;;;;;;;22.27;12.52;;;;;;;;;;5072390;28;20024;-50
2022/02/25 10:59:48;;;;;;;18.35;9.32;;;;;;;;;;5072359;28;20108;-45
2022/02/25 11:02:27;;;;;;;40.83;12.32;;;;;;;;;;5071880;28;20028;-50
2022/02/25 11:05:00;;;;;;;23.70;11.35;;;;;;;;;;5072374;28;20021;-46
2022/02/25 11:07:32;;;;;;;23.40;13.10;;;;;;;;;;5072023;28;20127;-47
2022/02/25 11:09:58;;;;;;;32.30;17.60;;;;;;;;;;5076159;28;20507;-49
2022/02/25 11:12:25;;;;;;;19.65;9.90;;;;;;;;;;5075884;28;20080;-46
2022/02/25 11:14:52;;;;;;;23.95;12.23;;;;;;;;;;5075821;28;20028;-51
2022/02/25 11:17:19;;;;;;;29.95;13.55;;;;;;;;;;5075902;28;20056;-50
2022/02/25 11:19:47;;;;;;;23.88;10.75;;;;;;;;;;5075516;28;20115;-55
2022/02/25 11:22:13;;;;;;;20.42;13.02;;;;;;;;;;5074949;28;20031;-45
2022/02/25 11:24:42;;;;;;;26.33;13.63;;;;;;;;;;5075763;28;20410;-50
2022/02/25 11:27:11;;;;;;;26.17;12.95;;;;;;;;;;5075806;28;20020;-50
2022/02/25 11:29:43;;;;;;;26.20;15.57;;;;;;;;;;5075644;28;20404;-49
2022/02/25 11:32:12;;;;;;;36.92;20.38;;;;;;;;;;5075503;28;20024;-47
2022/02/25 11:34:38;;;;;;;25.35;12.50;;;;;;;;;;5074874;28;20395;-50
2022/02/25 11:37:04;;;;;;;25.55;15.07;;;;;;;;;;5075606;28;20082;-47
2022/02/25 11:39:31;;;;;;;37.05;17.80;;;;;;;;;;5075430;28;20052;-50
2022/02/25 11:42:01;;;;;;;26.65;13.93;;;;;;;;;;5075424;28;20036;-51
2022/02/25 11:44:28;;;;;;;41.90;21.00;;;;;;;;;;5075331;28;20028;-47
2022/02/25 11:46:55;;;;;;;57.60;26.63;;;;;;;;;;5075341;28;20048;-48
2022/02/25 11:49:23;;;;;;;27.10;13.73;;;;;;;;;;5075102;28;20032;-47
2022/02/25 11:51:49;;;;;;;29.20;14.15;;;;;;;;;;5075068;28;20384;-51
2022/02/25 11:54:27;;;;;;;31.67;13.57;;;;;;;;;;5075407;28;20459;-48
2022/02/25 11:56:56;;;;;;;33.80;17.92;;;;;;;;;;5074976;28;20020;-49
2022/02/25 11:59:25;;;;;;;20.77;10.32;;;;;;;;;;5075276;28;20031;-51
2022/02/25 12:02:14;;;;;;;20.95;10.43;;;;;;;;;;5074690;28;20055;-50
2022/02/25 12:04:42;;;;;;;22.17;9.32;;;;;;;;;;5074842;28;20488;-50
2022/02/25 12:07:11;;;;;;;24.13;10.60;;;;;;;;;;5074940;28;20032;-47
2022/02/25 12:09:40;;;;;;;26.10;12.50;;;;;;;;;;5074905;28;20473;-50
2022/02/25 12:12:24;;;;;;;19.85;8.55;;;;;;;;;;5075074;28;20059;-45
2022/02/25 12:15:09;;;;;;;24.23;10.60;;;;;;;;;;5074924;28;20052;-51
2022/02/25 12:17:36;;;;;;;24.40;10.30;;;;;;;;;;5074864;28;20035;-49
2022/02/25 12:20:06;;;;;;;24.05;12.75;;;;;;;;;;5074812;28;20086;-46
2022/02/25 12:22:50;;;;;;;34.47;13.88;;;;;;;;;;5074673;28;20116;-50
2022/02/25 12:25:37;;;;;;;13.75;7.13;;;;;;;;;;5074810;28;20032;-45
2022/02/25 12:28:09;;;;;;;23.63;9.30;;;;;;;;;;5074754;28;20369;-53
2022/02/25 12:30:42;;;;;;;23.05;9.38;;;;;;;;;;5074628;28;20555;-53
2022/02/25 12:33:26;;;;;;;23.52;8.48;;;;;;;;;;5074522;28;20063;-46
2022/02/25 12:35:56;;;;;;;22.52;9.82;;;;;;;;;;5074397;28;20028;-51
2022/02/25 12:38:23;;;;;;;19.40;8.88;;;;;;;;;;5074444;28;20059;-53
2022/02/25 12:40:50;;;;;;;19.05;9.45;;;;;;;;;;5074220;28;20484;-52
2022/02/25 12:43:16;;;;;;;20.65;8.02;;;;;;;;;;5074566;28;20078;-52
2022/02/25 12:45:44;;;;;;;19.00;8.02;;;;;;;;;;5074340;28;20023;-52
2022/02/25 12:48:11;;;;;;;31.90;13.45;;;;;;;;;;5074158;28;20099;-53
2022/02/25 12:50:43;;;;;;;19.05;9.73;;;;;;;;;;5074271;28;20377;-53
2022/02/25 12:53:10;;;;;;;31.63;14.35;;;;;;;;;;5074361;28;20028;-54
2022/02/25 12:55:36;;;;;;;36.67;14.75;;;;;;;;;;5074081;28;20465;-50
2022/02/25 12:58:03;;;;;;;30.20;14.60;;;;;;;;;;5073914;28;20074;-47
2022/02/25 13:00:31;;;;;;;22.13;8.07;;;;;;;;;;5073728;28;20057;-52
2022/02/25 13:02:57;;;;;;;33.45;8.45;;;;;;;;;;5073861;28;20055;-53
2022/02/25 13:05:23;;;;;;;32.92;8.68;;;;;;;;;;5055991;28;20036;-52
2022/02/25 13:08:01;;;;;;;15.70;8.32;;;;;;;;;;5073805;28;20473;-45
2022/02/25 13:10:28;;;;;;;12.70;6.13;;;;;;;;;;5074012;28;20075;-47
2022/02/25 13:12:55;;;;;;;12.35;6.20;;;;;;;;;;5073980;28;20044;-53
2022/02/25 13:15:25;;;;;;;15.23;6.43;;;;;;;;;;5074093;28;20021;-51
2022/02/25 13:17:52;;;;;;;17.30;5.93;;;;;;;;;;5073814;28;20511;-54
2022/02/25 13:20:21;;;;;;;16.48;7.68;;;;;;;;;;5073777;28;20048;-51
2022/02/25 13:22:48;;;;;;;16.40;7.53;;;;;;;;;;5073472;28;20040;-52
2022/02/25 13:25:21;;;;;;;14.05;6.80;;;;;;;;;;5073463;28;20310;-54
2022/02/25 13:27:55;;;;;;;12.88;6.68;;;;;;;;;;5073462;28;20051;-44
2022/02/25 13:30:38;;;;;;;14.05;8.30;;;;;;;;;;5073216;28;20044;-50
2022/02/25 13:33:07;;;;;;;15.43;7.40;;;;;;;;;;5073467;28;20067;-48
2022/02/25 13:35:44;;;;;;;15.75;7.45;;;;;;;;;;5073329;28;20025;-52
2022/02/25 13:38:14;;;;;;;17.58;8.02;;;;;;;;;;5073391;28;20031;-51
2022/02/25 13:40:48;;;;;;;19.92;7.57;;;;;;;;;;5073492;28;20052;-49
2022/02/25 13:43:17;;;;;;;19.67;8.27;;;;;;;;;;5073650;28;20062;-50
2022/02/25 13:45:43;;;;;;;15.40;8.30;;;;;;;;;;5073555;28;20023;-46
2022/02/25 13:53:52;;;;;;;13.73;8.38;;;;;;;;;;5073695;28;20494;-49
2022/02/25 13:56:18;;;;;;;24.52;9.50;;;;;;;;;;5073233;28;20060;-45
2022/02/25 13:58:44;;;;;;;17.25;8.32;;;;;;;;;;5073306;28;20051;-44
2022/02/25 14:01:16;;;;;;;14.85;8.18;;;;;;;;;;5072878;28;20116;-46
2022/02/25 14:03:43;;;;;;;11.73;7.03;;;;;;;;;;5072903;28;20059;-44
2022/02/25 14:06:24;;;;;;;18.08;6.47;;;;;;;;;;5054900;28;20461;-44
2022/02/25 14:08:50;;;;;;;20.00;7.07;;;;;;;;;;5073225;28;20025;-46
2022/02/25 14:11:49;;;;;;;18.48;8.18;;;;;;;;;;5072871;28;20023;-47
2022/02/25 14:14:29;;;;;;;24.42;8.10;;;;;;;;;;4972192;28;20038;-45
2022/02/25 14:16:55;;;;;;;16.52;7.75;;;;;;;;;;4972102;28;20078;-44
2022/02/25 14:19:21;;;;;;;14.82;7.45;;;;;;;;;;4972220;28;20364;-44
2022/02/25 14:21:47;;;;;;;14.00;6.88;;;;;;;;;;4972105;28;20027;-44
2022/02/25 14:24:21;;;;;;;23.23;10.00;;;;;;;;;;4972227;28;20050;-47
2022/02/25 14:26:47;;;;;;;19.15;7.93;;;;;;;;;;4972371;28;20041;-46
2022/02/25 14:29:20;;;;;;;17.98;7.68;;;;;;;;;;4972241;28;20023;-54
2022/02/25 14:31:46;;;;;;;19.65;6.75;;;;;;;;;;4955755;28;20126;-53
2022/02/25 14:34:15;;;;;;;13.88;7.05;;;;;;;;;;4972209;28;20456;-54